Time;durP1;ratioP1;P1;durP2;ratioP2;P2;SDS_P1;SDS_P2;PMS_P1;PMS_P2;Temp;Humidity;BMP_temperature;BMP_pressure;BME280_temperature;BME280_humidity;BME280_pressure;Samples;Min_cycle;Max_cycle;Signal;HPM_P1;HPM_P2
2021/10/30 00:01:16;;;;;;;1999.90;999.90;;;;;;;6.25;90.32;96462.94;5113589;28;20263;-68
2021/10/30 00:03:43;;;;;;;1999.90;999.90;;;;;;;6.26;89.94;96456.75;5113542;28;20233;-68
2021/10/30 00:06:11;;;;;;;1999.90;999.90;;;;;;;6.26;90.48;96461.94;5113536;28;20206;-68
2021/10/30 00:08:38;;;;;;;1999.90;999.90;;;;;;;6.25;90.41;96465.53;5113440;28;20195;-68
2021/10/30 00:11:05;;;;;;;1999.90;999.90;;;;;;;6.27;90.02;96462.72;5113410;28;20210;-68
2021/10/30 00:13:32;;;;;;;1999.90;999.90;;;;;;;6.24;90.95;96463.97;5112993;28;20242;-67
2021/10/30 00:16:00;;;;;;;1999.90;999.90;;;;;;;6.21;90.91;96463.66;5113511;27;20226;-67
2021/10/30 00:18:27;;;;;;;1999.90;999.90;;;;;;;6.30;90.80;96462.22;5113157;28;20694;-68
2021/10/30 00:20:55;;;;;;;1999.90;999.90;;;;;;;6.25;90.61;96460.34;5118510;27;20200;-67
2021/10/30 00:23:24;;;;;;;1999.90;999.90;;;;;;;6.36;90.45;96461.25;5128122;27;20206;-67
2021/10/30 00:25:51;;;;;;;1999.90;999.90;;;;;;;6.45;90.23;96455.41;5133754;27;20203;-67
2021/10/30 00:28:18;;;;;;;1999.90;999.90;;;;;;;6.49;89.49;96453.13;5133175;27;20249;-68
2021/10/30 00:30:45;;;;;;;1999.90;999.90;;;;;;;6.37;90.05;96447.34;5133496;27;20779;-67
2021/10/30 00:33:12;;;;;;;1999.90;999.90;;;;;;;6.26;90.83;96446.44;5133525;27;20198;-68
2021/10/30 00:35:39;;;;;;;1999.90;999.90;;;;;;;6.29;90.70;96445.16;5133392;27;20549;-68
2021/10/30 00:38:06;;;;;;;1999.90;999.90;;;;;;;6.23;91.05;96443.53;5132678;27;20229;-68
2021/10/30 00:40:34;;;;;;;1999.90;999.90;;;;;;;6.23;90.92;96440.97;5133130;27;20251;-68
2021/10/30 00:43:02;;;;;;;1999.90;999.90;;;;;;;6.22;90.59;96440.22;5133048;27;20197;-68
2021/10/30 00:45:29;;;;;;;1999.90;999.90;;;;;;;6.22;90.73;96434.25;5133465;27;20681;-68
2021/10/30 00:47:56;;;;;;;1999.90;999.90;;;;;;;6.11;91.25;96437.75;5133034;27;20667;-68
2021/10/30 00:50:23;;;;;;;1999.90;999.90;;;;;;;5.95;91.49;96440.16;5133539;27;20197;-67
2021/10/30 00:52:53;;;;;;;1999.90;999.90;;;;;;;5.90;92.41;96440.09;5133150;27;21012;-68
2021/10/30 00:55:23;;;;;;;1999.90;999.90;;;;;;;5.93;93.00;96437.03;5133024;27;20202;-68
2021/10/30 00:57:53;;;;;;;1999.90;999.90;;;;;;;5.93;93.81;96437.03;5133130;27;20324;-68
2021/10/30 01:00:21;;;;;;;1999.90;999.90;;;;;;;5.99;94.12;96430.13;5133084;27;20194;-67
2021/10/30 01:02:47;;;;;;;1999.90;999.90;;;;;;;5.98;94.33;96426.75;5132607;27;20198;-68
2021/10/30 01:05:14;;;;;;;1999.90;999.90;;;;;;;5.92;95.52;96430.31;5132709;27;20212;-68
2021/10/30 01:07:42;;;;;;;1999.90;999.90;;;;;;;5.98;95.41;96429.34;5132869;27;20202;-68
2021/10/30 01:12:45;;;;;;;1999.90;999.90;;;;;;;5.93;95.94;96423.34;5116486;22;20247;-73
2021/10/30 01:15:14;;;;;;;1999.90;999.90;;;;;;;5.94;96.00;96428.25;5031584;28;20259;-72
2021/10/30 01:17:41;;;;;;;1999.90;999.90;;;;;;;5.89;95.71;96424.84;5046936;28;20695;-73
2021/10/30 01:20:19;;;;;;;1999.90;999.90;;;;;;;5.76;96.77;96414.88;5071173;28;20251;-73
2021/10/30 01:22:46;;;;;;;1999.90;999.90;;;;;;;5.87;96.99;96417.38;5071222;28;20777;-73
2021/10/30 01:25:13;;;;;;;1999.90;999.90;;;;;;;5.74;97.14;96422.06;5071280;28;20199;-72
2021/10/30 01:27:46;;;;;;;1999.90;999.90;;;;;;;5.74;97.25;96416.88;5071395;28;20276;-73
2021/10/30 01:30:16;;;;;;;1999.90;999.90;;;;;;;5.71;97.41;96418.16;5059857;28;20198;-73
2021/10/30 01:32:53;;;;;;;1999.90;999.90;;;;;;;5.67;97.17;96417.09;5051545;28;20227;-73
2021/10/30 01:35:27;;;;;;;1999.90;999.90;;;;;;;5.54;98.37;96422.56;5051223;28;20210;-73
2021/10/30 01:37:55;;;;;;;1999.90;999.90;;;;;;;5.56;98.57;96417.97;5047486;28;20772;-73
2021/10/30 01:40:23;;;;;;;1999.90;999.90;;;;;;;5.49;99.17;96425.88;5050827;28;20247;-73
2021/10/30 01:43:01;;;;;;;1999.90;999.90;;;;;;;5.31;98.76;96422.78;5050820;28;20193;-73
2021/10/30 01:45:29;;;;;;;1999.90;999.90;;;;;;;5.23;98.69;96425.78;5050775;28;20675;-73
2021/10/30 01:47:57;;;;;;;1999.90;999.90;;;;;;;5.06;98.13;96426.56;5050901;28;20259;-73
2021/10/30 01:50:28;;;;;;;1999.90;999.90;;;;;;;5.05;97.85;96419.84;5049857;28;20201;-73
2021/10/30 01:52:58;;;;;;;1999.90;999.90;;;;;;;4.99;97.89;96419.97;5050651;28;20188;-73
2021/10/30 01:55:28;;;;;;;1999.90;999.90;;;;;;;4.98;97.58;96421.78;5050393;28;20201;-73
2021/10/30 01:57:55;;;;;;;1999.90;999.90;;;;;;;4.98;97.96;96418.44;5050726;28;20216;-73
2021/10/30 02:00:22;;;;;;;1999.90;999.90;;;;;;;4.98;99.24;96414.06;5050473;28;20204;-73
2021/10/30 02:02:49;;;;;;;1999.90;999.90;;;;;;;4.94;99.10;96423.25;5050435;28;20626;-73
2021/10/30 02:05:16;;;;;;;1999.90;999.90;;;;;;;4.88;100.00;96424.19;5050316;28;20205;-73
2021/10/30 02:07:45;;;;;;;1999.90;999.90;;;;;;;4.83;100.00;96425.94;5069351;28;20208;-73
2021/10/30 02:10:13;;;;;;;1999.90;999.90;;;;;;;4.75;100.00;96424.50;5070289;28;20623;-72
2021/10/30 02:12:41;;;;;;;1999.90;999.90;;;;;;;4.73;100.00;96416.25;5055881;28;20302;-73
2021/10/30 02:15:09;;;;;;;1999.90;999.90;;;;;;;4.76;100.00;96426.06;5050485;28;20197;-73
2021/10/30 02:17:37;;;;;;;1999.90;999.90;;;;;;;4.67;100.00;96420.53;5050201;28;20221;-73
2021/10/30 02:20:06;;;;;;;1999.90;999.90;;;;;;;4.63;100.00;96423.81;5050506;28;20197;-73
2021/10/30 02:22:33;;;;;;;1999.90;999.90;;;;;;;4.68;100.00;96419.50;5050136;28;21055;-73
2021/10/30 02:25:01;;;;;;;1999.90;999.90;;;;;;;4.60;100.00;96421.69;5050429;28;20576;-73
2021/10/30 02:27:28;;;;;;;1999.90;999.90;;;;;;;4.46;100.00;96421.19;5050217;28;20699;-73
2021/10/30 02:29:55;;;;;;;1999.90;999.90;;;;;;;4.42;100.00;96416.75;5049902;28;20280;-73
2021/10/30 02:32:22;;;;;;;1999.90;999.90;;;;;;;4.28;100.00;96418.84;5050340;28;20197;-73
2021/10/30 02:34:50;;;;;;;1999.90;999.90;;;;;;;4.26;100.00;96419.06;5050236;28;20668;-73
2021/10/30 02:37:17;;;;;;;1999.90;999.90;;;;;;;4.25;100.00;96422.63;5050078;28;20201;-73
2021/10/30 02:39:44;;;;;;;1999.90;999.90;;;;;;;4.26;100.00;96416.47;5050125;28;20205;-73
2021/10/30 02:42:13;;;;;;;1999.90;999.90;;;;;;;4.33;100.00;96413.78;5050193;28;20263;-73
2021/10/30 02:44:40;;;;;;;1999.90;999.90;;;;;;;4.33;100.00;96421.50;5049834;28;20680;-73
2021/10/30 02:47:07;;;;;;;1999.90;999.90;;;;;;;4.40;100.00;96431.63;5050101;28;20201;-74
2021/10/30 02:49:34;;;;;;;1999.90;999.90;;;;;;;4.35;100.00;96419.47;5049760;28;20197;-73
2021/10/30 02:52:01;;;;;;;1999.90;999.90;;;;;;;4.33;100.00;96417.09;5050043;28;20258;-73
2021/10/30 02:54:28;;;;;;;1999.90;999.90;;;;;;;4.31;100.00;96424.28;5049801;28;20201;-73
2021/10/30 02:56:55;;;;;;;1999.90;999.90;;;;;;;4.27;100.00;96419.84;5049733;28;20197;-73
2021/10/30 02:59:24;;;;;;;1999.90;999.90;;;;;;;4.30;100.00;96425.28;5049969;28;20228;-73
2021/10/30 03:01:51;;;;;;;1999.90;999.90;;;;;;;4.30;100.00;96416.78;5051598;28;20254;-72
2021/10/30 03:04:18;;;;;;;1999.90;999.90;;;;;;;4.41;100.00;96417.75;5054081;28;20207;-72
2021/10/30 03:06:45;;;;;;;1999.90;999.90;;;;;;;4.39;100.00;96417.19;5065040;28;20262;-72
2021/10/30 03:09:12;;;;;;;1999.90;999.90;;;;;;;4.33;100.00;96414.53;5073695;28;20663;-73
2021/10/30 03:11:40;;;;;;;1999.90;999.90;;;;;;;4.28;100.00;96413.69;5067695;28;20229;-71
2021/10/30 03:14:07;;;;;;;1999.90;999.90;;;;;;;4.23;100.00;96422.06;5053548;28;20292;-73
2021/10/30 03:16:35;;;;;;;1999.90;999.90;;;;;;;4.24;100.00;96413.34;5053775;28;20284;-72
2021/10/30 03:19:03;;;;;;;1999.90;999.90;;;;;;;4.25;100.00;96417.50;5053687;28;20769;-73
2021/10/30 03:21:30;;;;;;;1999.90;999.90;;;;;;;4.17;100.00;96420.44;5053485;28;20205;-72
2021/10/30 03:23:57;;;;;;;1999.90;999.90;;;;;;;4.20;100.00;96417.41;5053443;28;20624;-73
2021/10/30 03:26:24;;;;;;;1999.90;999.90;;;;;;;4.16;100.00;96420.66;5053538;28;20680;-73
2021/10/30 03:28:51;;;;;;;1999.90;999.90;;;;;;;4.19;100.00;96420.97;5053558;28;20623;-73
2021/10/30 03:31:18;;;;;;;1999.90;999.90;;;;;;;4.13;100.00;96415.97;5050216;28;20201;-72
2021/10/30 03:33:48;;;;;;;1999.90;999.90;;;;;;;4.20;100.00;96432.81;5053523;28;20267;-73
2021/10/30 03:36:15;;;;;;;1999.90;999.90;;;;;;;3.85;100.00;96429.56;5053432;28;20220;-73
2021/10/30 03:38:42;;;;;;;1999.90;999.90;;;;;;;3.93;100.00;96421.53;5052973;28;20228;-73
2021/10/30 03:41:09;;;;;;;1999.90;999.90;;;;;;;4.05;100.00;96418.91;5053127;28;20233;-71
2021/10/30 03:43:36;;;;;;;1999.90;999.90;;;;;;;4.04;100.00;96425.03;5053263;28;20201;-73
2021/10/30 03:46:03;;;;;;;1999.90;999.90;;;;;;;4.01;100.00;96422.94;5052946;28;20231;-73
2021/10/30 03:48:31;;;;;;;1999.90;999.90;;;;;;;4.15;100.00;96425.03;5053046;28;20286;-73
2021/10/30 03:50:59;;;;;;;1999.90;999.90;;;;;;;4.20;100.00;96429.47;5053124;28;20208;-73
2021/10/30 03:53:28;;;;;;;1999.90;999.90;;;;;;;4.18;100.00;96419.44;5053131;28;20250;-73
2021/10/30 03:55:55;;;;;;;1999.90;999.90;;;;;;;4.23;100.00;96421.31;5052812;28;20193;-73
2021/10/30 03:58:22;;;;;;;1999.90;999.90;;;;;;;4.16;100.00;96426.59;5052963;28;20691;-72
2021/10/30 04:00:49;;;;;;;1999.90;999.90;;;;;;;4.26;100.00;96421.63;5052792;28;20193;-73
2021/10/30 04:03:16;;;;;;;1999.90;999.90;;;;;;;4.06;100.00;96430.75;5052625;28;20757;-73
2021/10/30 04:05:43;;;;;;;1999.90;999.90;;;;;;;3.87;100.00;96432.72;5055511;28;20259;-73
2021/10/30 04:08:14;;;;;;;1999.90;999.90;;;;;;;3.98;100.00;96436.28;5072852;28;20197;-72
2021/10/30 04:10:42;;;;;;;1999.90;999.90;;;;;;;3.87;100.00;96432.72;5073001;28;20246;-72
2021/10/30 04:13:09;;;;;;;1999.90;999.90;;;;;;;3.81;100.00;96436.97;5053749;28;20193;-73
2021/10/30 04:15:36;;;;;;;1999.90;999.90;;;;;;;3.75;100.00;96434.53;5052806;28;20577;-73
2021/10/30 04:18:03;;;;;;;1999.90;999.90;;;;;;;3.89;100.00;96428.13;5052567;28;20221;-73
2021/10/30 04:20:30;;;;;;;1999.90;999.90;;;;;;;3.71;100.00;96425.69;5052399;28;20197;-73
2021/10/30 04:22:57;;;;;;;1999.90;999.90;;;;;;;3.89;100.00;96417.81;5052264;28;20586;-73
2021/10/30 04:25:26;;;;;;;1999.90;999.90;;;;;;;3.91;100.00;96420.97;5052227;28;20197;-73
2021/10/30 04:27:53;;;;;;;1999.90;999.90;;;;;;;3.75;100.00;96419.88;5052564;28;20701;-73
2021/10/30 04:30:20;;;;;;;1999.90;999.90;;;;;;;3.96;100.00;96421.06;5052254;28;20208;-73
2021/10/30 04:32:47;;;;;;;1999.90;999.90;;;;;;;3.93;100.00;96415.59;5052046;28;20611;-73
2021/10/30 04:35:14;;;;;;;1999.90;999.90;;;;;;;3.98;100.00;96411.34;5052133;28;20258;-72
2021/10/30 04:37:41;;;;;;;1999.90;999.90;;;;;;;3.97;100.00;96422.63;5052150;28;20205;-73
2021/10/30 04:40:09;;;;;;;1999.90;999.90;;;;;;;3.99;100.00;96423.16;5051867;28;20232;-72
2021/10/30 04:42:37;;;;;;;1999.90;999.90;;;;;;;4.06;100.00;96420.47;5051858;28;20292;-73
2021/10/30 04:45:05;;;;;;;1999.90;999.90;;;;;;;4.13;100.00;96421.91;5052116;28;20891;-74
2021/10/30 04:47:33;;;;;;;1999.90;999.90;;;;;;;4.21;100.00;96420.75;5051836;28;20227;-73
2021/10/30 04:50:00;;;;;;;1999.90;999.90;;;;;;;4.17;100.00;96420.44;5051766;28;20197;-72
2021/10/30 04:52:27;;;;;;;1999.90;999.90;;;;;;;4.21;100.00;96421.53;5051956;28;20672;-73
2021/10/30 04:54:54;;;;;;;1999.90;999.90;;;;;;;4.22;100.00;96427.47;5052032;28;20197;-74
2021/10/30 04:57:21;;;;;;;1999.90;999.90;;;;;;;4.09;100.00;96425.94;5051584;28;20754;-74
2021/10/30 04:59:50;;;;;;;1999.90;999.90;;;;;;;4.10;100.00;96419.78;5051472;28;20274;-74
2021/10/30 05:02:17;;;;;;;1999.90;999.90;;;;;;;4.05;100.00;96411.97;5051806;28;20197;-74
2021/10/30 05:04:44;;;;;;;1999.90;999.90;;;;;;;3.95;100.00;96424.63;5051412;28;20197;-74
2021/10/30 05:07:11;;;;;;;1999.90;999.90;;;;;;;3.96;100.00;96421.06;5065952;28;20201;-74
2021/10/30 05:09:38;;;;;;;1999.90;999.90;;;;;;;3.94;100.00;96423.06;5071656;28;20193;-73
2021/10/30 05:12:06;;;;;;;1999.90;999.90;;;;;;;4.04;100.00;96425.84;5062015;28;20229;-73
2021/10/30 05:14:33;;;;;;;1999.90;999.90;;;;;;;4.03;100.00;96426.88;5051510;28;20205;-71
2021/10/30 05:17:02;;;;;;;1999.90;999.90;;;;;;;4.08;100.00;96421.03;5051479;28;20730;-74
2021/10/30 05:19:29;;;;;;;1999.90;999.90;;;;;;;4.11;100.00;96426.50;5051337;28;20221;-74
2021/10/30 05:21:56;;;;;;;1999.90;999.90;;;;;;;4.13;100.00;96421.13;5051201;28;20201;-73
2021/10/30 05:24:23;;;;;;;1999.90;999.90;;;;;;;4.16;100.00;96424.00;5051074;28;20902;-74
2021/10/30 05:26:50;;;;;;;1999.90;999.90;;;;;;;4.26;100.00;96424.19;5051035;28;20205;-74
2021/10/30 05:29:17;;;;;;;1999.90;999.90;;;;;;;4.27;100.00;96423.19;5051005;28;20236;-74
2021/10/30 05:31:44;;;;;;;1999.90;999.90;;;;;;;4.27;100.00;96430.13;5051282;28;20197;-74
2021/10/30 05:34:12;;;;;;;1999.90;999.90;;;;;;;4.31;100.00;96426.88;5050852;28;20207;-74
2021/10/30 05:36:40;;;;;;;1999.90;999.90;;;;;;;4.29;100.00;96421.16;5051293;28;20233;-74
2021/10/30 05:39:14;;;;;;;1999.90;999.90;;;;;;;4.41;100.00;96421.13;5050922;28;20274;-74
2021/10/30 05:41:42;;;;;;;1999.90;999.90;;;;;;;4.46;100.00;96420.41;5047634;28;20579;-73
2021/10/30 05:44:09;;;;;;;1999.90;999.90;;;;;;;4.38;100.00;96429.31;5050798;28;20201;-74
2021/10/30 05:46:37;;;;;;;1999.90;999.90;;;;;;;4.49;100.00;96432.81;5050606;28;20197;-74
2021/10/30 05:49:05;;;;;;;1999.90;999.90;;;;;;;4.51;100.00;96429.00;5050342;28;20201;-74
2021/10/30 05:51:34;;;;;;;1999.90;999.90;;;;;;;4.59;100.00;96422.69;5050272;28;20657;-74
2021/10/30 05:54:01;;;;;;;1999.90;999.90;;;;;;;4.61;100.00;96430.97;5050306;28;20202;-74
2021/10/30 05:56:29;;;;;;;1999.90;999.90;;;;;;;4.65;100.00;96429.50;5050146;28;20215;-74
2021/10/30 05:58:56;;;;;;;1999.90;999.90;;;;;;;4.81;100.00;96427.94;5049960;28;20290;-74
2021/10/30 06:01:23;;;;;;;1999.90;999.90;;;;;;;4.81;100.00;96431.31;5050500;28;20228;-74
2021/10/30 06:03:50;;;;;;;1999.90;999.90;;;;;;;4.97;100.00;96425.38;5050538;28;20193;-74
2021/10/30 06:06:17;;;;;;;1999.90;999.90;;;;;;;5.01;100.00;96433.41;5057194;28;20252;-74
2021/10/30 06:08:46;;;;;;;1999.90;999.90;;;;;;;5.22;100.00;96430.13;5070278;28;20200;-74
2021/10/30 06:11:13;;;;;;;1999.90;999.90;;;;;;;5.40;100.00;96436.81;5068181;28;20274;-74
2021/10/30 06:13:40;;;;;;;1999.90;999.90;;;;;;;5.61;100.00;96433.50;5050071;28;20283;-74
2021/10/30 06:16:07;;;;;;;1999.90;999.90;;;;;;;5.78;100.00;96433.47;5049971;28;20197;-74
2021/10/30 06:18:34;;;;;;;1999.90;999.90;;;;;;;6.03;100.00;96431.19;5050288;28;20224;-74
2021/10/30 06:21:01;;;;;;;1999.90;999.90;;;;;;;6.33;100.00;96439.28;5050013;28;20254;-74
2021/10/30 06:23:28;;;;;;;1999.90;999.90;;;;;;;6.72;100.00;96434.75;5050199;28;20583;-74
2021/10/30 06:25:57;;;;;;;1999.90;999.90;;;;;;;6.92;100.00;96442.66;5049876;28;20196;-74
2021/10/30 06:28:24;;;;;;;1999.90;999.90;;;;;;;7.28;100.00;96448.09;5050183;28;20197;-75
2021/10/30 06:30:51;;;;;;;1999.90;999.90;;;;;;;7.48;99.22;96450.03;5049866;28;20220;-74
2021/10/30 06:33:18;;;;;;;1999.90;999.90;;;;;;;7.62;98.69;96444.16;5049872;28;20268;-74
2021/10/30 06:35:45;;;;;;;1999.90;999.90;;;;;;;7.76;97.69;96440.13;5049244;28;20212;-75
2021/10/30 06:38:13;;;;;;;1999.90;999.90;;;;;;;7.93;96.94;96445.09;5050079;28;20201;-74
2021/10/30 06:40:40;;;;;;;1999.90;999.90;;;;;;;8.12;96.84;96450.59;5049593;28;20282;-74
2021/10/30 06:43:09;;;;;;;1999.90;999.90;;;;;;;8.28;95.95;96452.22;5049722;28;20200;-74
2021/10/30 06:45:36;;;;;;;1999.90;999.90;;;;;;;8.41;94.76;96444.00;5049732;28;20738;-74
2021/10/30 06:48:03;;;;;;;1999.90;999.90;;;;;;;8.53;95.05;96454.91;5049980;28;20232;-75
2021/10/30 06:50:31;;;;;;;1999.90;999.90;;;;;;;8.74;94.97;96455.72;5049683;28;20626;-74
2021/10/30 06:52:58;;;;;;;1999.90;999.90;;;;;;;8.99;94.38;96452.38;5049923;28;20205;-75
2021/10/30 06:55:25;;;;;;;1999.90;999.90;;;;;;;9.14;93.29;96449.00;5049907;28;20228;-74
2021/10/30 06:57:53;;;;;;;1999.90;999.90;;;;;;;9.36;92.43;96454.69;5050004;28;20350;-74
2021/10/30 07:00:22;;;;;;;1999.90;999.90;;;;;;;9.47;91.81;96448.44;5049792;28;20275;-74
2021/10/30 07:02:51;;;;;;;1999.90;999.90;;;;;;;9.57;92.40;96450.25;5049580;28;20204;-74
2021/10/30 07:05:20;;;;;;;1999.90;999.90;;;;;;;9.74;92.48;96450.72;5049557;28;20275;-74
2021/10/30 07:07:47;;;;;;;1999.90;999.90;;;;;;;9.81;91.78;96456.44;5069297;28;20204;-74
2021/10/30 07:10:14;;;;;;;1999.90;999.90;;;;;;;9.95;89.97;96452.22;5069472;28;20199;-74
2021/10/30 07:12:41;;;;;;;1999.90;999.90;;;;;;;10.00;90.21;96452.22;5055254;28;20270;-74
2021/10/30 07:15:10;;;;;;;1999.90;999.90;;;;;;;10.05;89.13;96444.41;5049780;28;20274;-74
2021/10/30 07:17:39;;;;;;;1999.90;999.90;;;;;;;10.11;88.12;96448.50;5049461;28;20198;-74
2021/10/30 07:20:08;;;;;;;1999.90;999.90;;;;;;;10.19;86.57;96455.78;5049330;28;20788;-74
2021/10/30 07:22:41;;;;;;;1999.90;999.90;;;;;;;10.29;85.06;96458.34;5049867;28;20240;-74
2021/10/30 07:25:09;;;;;;;1999.90;999.90;;;;;;;10.44;84.47;96451.53;5049913;28;20217;-74
2021/10/30 07:27:36;;;;;;;1999.90;999.90;;;;;;;10.36;84.28;96452.88;5049767;28;20198;-74
2021/10/30 07:30:04;;;;;;;1999.90;999.90;;;;;;;10.50;83.49;96453.84;5049770;28;20221;-74
2021/10/30 07:32:31;;;;;;;1999.90;999.90;;;;;;;10.58;82.24;96452.47;5049720;28;20201;-74
2021/10/30 07:35:00;;;;;;;1999.90;999.90;;;;;;;10.55;83.55;96451.22;5049204;28;20201;-74
2021/10/30 07:37:27;;;;;;;1999.90;999.90;;;;;;;10.70;80.71;96445.91;5046056;28;20206;-73
2021/10/30 07:39:54;;;;;;;1999.90;999.90;;;;;;;10.77;81.23;96443.78;5049510;28;20224;-74
2021/10/30 07:42:22;;;;;;;1999.90;999.90;;;;;;;10.88;79.39;96441.88;5049430;28;20673;-73
2021/10/30 07:44:49;;;;;;;1999.90;999.90;;;;;;;11.06;77.37;96445.63;5049484;28;20220;-74
2021/10/30 07:47:16;;;;;;;1999.90;999.90;;;;;;;11.00;78.32;96447.53;5049458;28;20657;-73
2021/10/30 07:49:43;;;;;;;1999.90;999.90;;;;;;;10.93;78.17;96449.66;5052512;28;20200;-74
2021/10/30 07:52:12;;;;;;;1999.90;999.90;;;;;;;10.95;77.96;96439.75;5052874;28;20200;-73
2021/10/30 07:54:40;;;;;;;1999.90;999.90;;;;;;;11.25;76.28;96440.56;5052887;28;20201;-74
2021/10/30 07:57:08;;;;;;;1999.90;999.90;;;;;;;11.31;75.81;96434.28;5052917;28;20673;-74
2021/10/30 07:59:36;;;;;;;1999.90;999.90;;;;;;;11.37;76.93;96438.34;5052930;28;20220;-74
2021/10/30 08:02:04;;;;;;;1999.90;999.90;;;;;;;11.22;75.37;96429.63;5053010;28;20197;-74
2021/10/30 08:04:33;;;;;;;1999.90;999.90;;;;;;;11.40;75.07;96427.41;5052709;28;20197;-74
2021/10/30 08:07:00;;;;;;;1999.90;999.90;;;;;;;11.50;75.44;96422.09;5065924;28;20201;-74
2021/10/30 08:09:29;;;;;;;1999.90;999.90;;;;;;;11.59;74.96;96429.03;5072545;28;20200;-74
2021/10/30 08:11:56;;;;;;;1999.90;999.90;;;;;;;11.66;73.42;96423.47;5064286;28;20240;-74
2021/10/30 08:14:23;;;;;;;1999.90;999.90;;;;;;;11.70;74.68;96418.53;5052443;28;20196;-74
2021/10/30 08:16:51;;;;;;;1999.90;999.90;;;;;;;11.83;73.79;96410.06;5052696;28;20198;-73
2021/10/30 08:19:18;;;;;;;1999.90;999.90;;;;;;;11.89;72.86;96420.16;5052437;28;20217;-73
2021/10/30 08:21:45;;;;;;;1999.90;999.90;;;;;;;11.89;72.79;96424.59;5052678;28;20201;-73
2021/10/30 08:24:13;;;;;;;1999.90;999.90;;;;;;;11.80;73.55;96419.22;5052522;28;20196;-74
2021/10/30 08:26:42;;;;;;;1999.90;999.90;;;;;;;12.04;71.67;96417.38;5052409;28;20558;-73
2021/10/30 08:29:09;;;;;;;1999.90;999.90;;;;;;;12.00;73.12;96424.16;5052165;28;20209;-73
2021/10/30 08:31:36;;;;;;;1999.90;999.90;;;;;;;12.03;72.56;96415.81;5052426;28;20298;-73
2021/10/30 08:34:04;;;;;;;1999.90;999.90;;;;;;;12.14;70.82;96415.69;5052368;28;20842;-73
2021/10/30 08:36:31;;;;;;;1999.90;999.90;;;;;;;12.15;70.62;96412.03;5052232;28;20720;-73
2021/10/30 08:38:59;;;;;;;1999.90;999.90;;;;;;;12.22;70.28;96407.22;5052211;28;20201;-73
2021/10/30 08:41:26;;;;;;;1999.90;999.90;;;;;;;12.25;71.95;96409.28;5052006;28;20292;-73
2021/10/30 08:43:55;;;;;;;1999.90;999.90;;;;;;;12.22;72.21;96408.00;5052127;28;20685;-74
2021/10/30 08:46:24;;;;;;;1999.90;999.90;;;;;;;12.44;71.56;96403.03;5052164;28;20673;-74
2021/10/30 08:48:53;;;;;;;1999.90;999.90;;;;;;;12.53;69.67;96403.16;5052130;28;20262;-74
2021/10/30 08:51:20;;;;;;;1999.90;999.90;;;;;;;12.65;71.01;96394.91;5052061;28;20193;-73
2021/10/30 08:53:47;;;;;;;1999.90;999.90;;;;;;;12.82;70.83;96388.13;5051725;28;20200;-73
2021/10/30 08:56:14;;;;;;;1999.90;999.90;;;;;;;12.87;71.10;96390.66;5051759;28;20292;-73
2021/10/30 08:58:41;;;;;;;1999.90;999.90;;;;;;;12.80;70.22;96392.84;5051714;28;20277;-73
2021/10/30 09:01:11;;;;;;;1999.90;999.90;;;;;;;12.94;69.65;96391.06;5051801;28;20221;-73
2021/10/30 09:03:39;;;;;;;1999.90;999.90;;;;;;;13.04;68.42;96379.69;5052048;28;20189;-73
2021/10/30 09:06:07;;;;;;;1999.90;999.90;;;;;;;13.09;67.30;96387.44;5056972;28;20200;-73
2021/10/30 09:08:35;;;;;;;1999.90;999.90;;;;;;;13.12;67.50;96379.03;5071490;28;20247;-73
2021/10/30 09:11:08;;;;;;;1999.90;999.90;;;;;;;13.17;66.87;96384.19;5070973;28;20236;-73
2021/10/30 09:13:36;;;;;;;1999.90;999.90;;;;;;;13.19;66.68;96376.06;5051690;28;20912;-73
2021/10/30 09:16:04;;;;;;;1999.90;999.90;;;;;;;13.23;67.50;96375.22;5051395;28;20988;-73
2021/10/30 09:18:34;;;;;;;1999.90;999.90;;;;;;;13.19;66.68;96363.03;5051449;28;20201;-73
2021/10/30 09:21:14;;;;;;;1999.90;999.90;;;;;;;13.26;67.42;96364.19;5051169;28;20574;-73
2021/10/30 09:23:44;;;;;;;1999.90;999.90;;;;;;;13.41;66.54;96360.50;5051508;28;20189;-73
2021/10/30 09:26:17;;;;;;;1999.90;999.90;;;;;;;13.39;65.05;96356.66;5050985;28;20565;-73
2021/10/30 09:28:49;;;;;;;1999.90;999.90;;;;;;;13.36;65.91;96350.94;5051343;28;20189;-72
2021/10/30 09:31:19;;;;;;;1999.90;999.90;;;;;;;13.45;65.55;96348.44;5050282;28;20185;-73
2021/10/30 09:33:54;;;;;;;1999.90;999.90;;;;;;;13.46;64.63;96354.41;5049378;28;20235;-73
2021/10/30 09:36:22;;;;;;;1999.90;999.90;;;;;;;13.49;64.60;96344.19;5051206;28;20193;-73
2021/10/30 09:38:54;;;;;;;1999.90;999.90;;;;;;;13.56;63.19;96334.13;5051065;28;20201;-73
2021/10/30 09:41:24;;;;;;;1999.90;999.90;;;;;;;13.59;62.55;96327.56;5051148;28;20209;-73
2021/10/30 09:43:57;;;;;;;1999.90;999.90;;;;;;;13.67;63.47;96321.63;5050487;28;20205;-73
2021/10/30 09:46:26;;;;;;;1999.90;999.90;;;;;;;13.73;62.70;96317.84;5050654;28;20247;-73
2021/10/30 09:48:56;;;;;;;1999.90;999.90;;;;;;;13.83;62.83;96322.09;5050857;28;20203;-73
2021/10/30 09:51:33;;;;;;;1999.90;999.90;;;;;;;14.09;62.97;96323.13;5050508;28;20188;-73
2021/10/30 09:54:01;;;;;;;1999.90;999.90;;;;;;;14.12;60.15;96317.28;5050548;28;20262;-73
2021/10/30 09:56:46;;;;;;;1999.90;999.90;;;;;;;14.10;60.79;96319.41;5050299;28;20196;-73
2021/10/30 09:59:14;;;;;;;1999.90;999.90;;;;;;;14.00;61.55;96312.56;5050389;28;20197;-73
2021/10/30 10:01:42;;;;;;;1999.90;999.90;;;;;;;13.99;61.53;96305.81;5050634;28;20312;-73
2021/10/30 10:04:13;;;;;;;1999.90;999.90;;;;;;;13.94;61.69;96315.59;5050498;28;20276;-72
2021/10/30 10:06:41;;;;;;;1999.90;999.90;;;;;;;14.08;61.18;96311.13;5060605;28;20225;-73
2021/10/30 10:09:08;;;;;;;1999.90;999.90;;;;;;;14.17;61.28;96314.56;5070061;28;20575;-73
2021/10/30 10:11:36;;;;;;;1999.90;999.90;;;;;;;14.21;61.93;96299.84;5064249;28;20672;-73
2021/10/30 10:14:04;;;;;;;1999.90;999.90;;;;;;;14.35;60.68;96300.53;5050100;28;20201;-73
2021/10/30 10:16:31;;;;;;;1999.90;999.90;;;;;;;14.45;60.03;96291.72;5050202;28;20700;-73
2021/10/30 10:18:59;;;;;;;1999.90;999.90;;;;;;;14.55;59.04;96294.09;5050387;28;20559;-73
2021/10/30 10:21:31;;;;;;;1999.90;999.90;;;;;;;14.52;59.82;96292.84;5049927;28;20271;-73
2021/10/30 10:23:59;;;;;;;1999.90;999.90;;;;;;;14.37;59.40;96280.16;5050005;28;20181;-73
2021/10/30 10:26:48;;;;;;;1999.90;999.90;;;;;;;14.34;58.29;96293.78;5050268;28;20201;-73
2021/10/30 10:29:27;;;;;;;1999.90;999.90;;;;;;;14.41;60.02;96280.31;5049961;28;20272;-73
2021/10/30 10:31:56;;;;;;;1999.90;999.90;;;;;;;14.51;59.10;96270.38;5049877;28;20942;-73
2021/10/30 10:34:24;;;;;;;1999.90;999.90;;;;;;;14.65;59.43;96267.69;5049935;28;20227;-73
2021/10/30 10:37:19;;;;;;;1999.90;999.90;;;;;;;14.77;57.79;96269.75;5050113;28;20201;-73
2021/10/30 10:39:50;;;;;;;1999.90;999.90;;;;;;;14.43;59.46;96259.88;5049905;28;20185;-73
2021/10/30 10:42:38;;;;;;;1999.90;999.90;;;;;;;14.70;58.18;96253.72;5050416;28;20547;-73
2021/10/30 10:45:06;;;;;;;1999.90;999.90;;;;;;;14.91;59.63;96252.91;5050030;28;20208;-73
2021/10/30 10:47:53;;;;;;;1999.90;999.90;;;;;;;14.81;58.02;96249.75;5050338;28;20193;-73
2021/10/30 10:50:24;;;;;;;1999.90;999.90;;;;;;;14.93;57.99;96250.75;5049847;28;20182;-73
2021/10/30 10:53:31;;;;;;;1999.90;999.90;;;;;;;14.73;59.32;96238.19;5049814;28;20218;-73
2021/10/30 10:56:11;;;;;;;1999.90;999.90;;;;;;;14.96;59.07;96231.81;5049682;28;20291;-73
2021/10/30 10:59:10;;;;;;;1999.90;999.90;;;;;;;14.96;57.97;96241.53;5050029;28;20185;-73
2021/10/30 11:02:21;;;;;;;1999.90;999.90;;;;;;;14.91;58.15;96224.09;5050033;28;20245;-73
2021/10/30 11:05:25;;;;;;;1999.90;999.90;;;;;;;14.92;58.21;96211.78;5049678;28;20232;-73
2021/10/30 11:08:27;;;;;;;1999.90;999.90;;;;;;;14.91;57.22;96223.34;5029808;28;20251;-73